Time;durP1;ratioP1;P1;durP2;ratioP2;P2;SDS_P1;SDS_P2;PMS_P1;PMS_P2;Temp;Humidity;BMP_temperature;BMP_pressure;BME280_temperature;BME280_humidity;BME280_pressure;Samples;Min_cycle;Max_cycle;Signal;HPM_P1;HPM_P2
2023/09/29 00:00:18;;;;;;;79.53;12.98;;;;;;;;;;5038402;28;20040;-39
2023/09/29 00:02:47;;;;;;;85.10;13.73;;;;;;;;;;5046036;28;20449;-43
2023/09/29 00:05:17;;;;;;;84.35;13.52;;;;;;;;;;5030316;28;20811;-41
2023/09/29 00:07:44;;;;;;;94.47;15.13;;;;;;;;;;5047690;28;20040;-41
2023/09/29 00:10:18;;;;;;;122.22;18.67;;;;;;;;;;5033032;28;20025;-40
2023/09/29 00:12:45;;;;;;;121.20;20.20;;;;;;;;;;5042735;28;20128;-40
2023/09/29 00:15:12;;;;;;;153.60;29.27;;;;;;;;;;5050339;28;20025;-41
2023/09/29 00:17:39;;;;;;;147.65;32.35;;;;;;;;;;5045682;28;20843;-40
2023/09/29 00:22:46;;;;;;;176.77;46.85;;;;;;;;;;5042420;28;20033;-40
2023/09/29 00:25:14;;;;;;;191.05;51.25;;;;;;;;;;5040020;28;20029;-40
2023/09/29 00:27:40;;;;;;;168.52;48.13;;;;;;;;;;5051386;28;20037;-40
2023/09/29 00:30:10;;;;;;;170.02;43.00;;;;;;;;;;5049739;28;20025;-40
2023/09/29 00:32:37;;;;;;;155.40;42.33;;;;;;;;;;5034376;28;20045;-40
2023/09/29 00:35:05;;;;;;;143.77;40.50;;;;;;;;;;5032084;28;20026;-41
2023/09/29 00:37:32;;;;;;;144.93;39.67;;;;;;;;;;5031792;28;20045;-40
2023/09/29 00:40:00;;;;;;;127.97;39.53;;;;;;;;;;5038495;28;20021;-40
2023/09/29 00:42:27;;;;;;;143.18;38.08;;;;;;;;;;5050236;28;20091;-40
2023/09/29 00:44:55;;;;;;;140.80;37.00;;;;;;;;;;5051307;28;20087;-39
2023/09/29 00:47:22;;;;;;;117.63;35.00;;;;;;;;;;5050907;28;20045;-40
2023/09/29 00:49:49;;;;;;;128.93;35.80;;;;;;;;;;5051097;28;20036;-41
2023/09/29 00:52:17;;;;;;;121.35;33.80;;;;;;;;;;5045146;28;20482;-41
2023/09/29 00:54:45;;;;;;;115.85;34.60;;;;;;;;;;5037865;28;20108;-40
2023/09/29 00:57:12;;;;;;;113.57;31.10;;;;;;;;;;5050780;28;20041;-43
2023/09/29 00:59:40;;;;;;;110.15;32.65;;;;;;;;;;5050830;28;20060;-41
2023/09/29 01:02:09;;;;;;;113.45;31.25;;;;;;;;;;5050335;28;20040;-46
2023/09/29 01:04:36;;;;;;;133.88;33.47;;;;;;;;;;5050837;28;20045;-41
2023/09/29 01:07:03;;;;;;;105.60;30.98;;;;;;;;;;5040766;28;20399;-42
2023/09/29 01:09:30;;;;;;;96.72;28.95;;;;;;;;;;5038651;28;20021;-42
2023/09/29 01:12:00;;;;;;;118.82;30.48;;;;;;;;;;5049282;28;20055;-42
2023/09/29 01:14:27;;;;;;;96.25;25.85;;;;;;;;;;5049947;28;20043;-42
2023/09/29 01:16:54;;;;;;;97.22;26.00;;;;;;;;;;5050716;28;20037;-42
2023/09/29 01:19:21;;;;;;;93.28;26.02;;;;;;;;;;5046520;28;20061;-41
2023/09/29 01:21:48;;;;;;;83.82;21.75;;;;;;;;;;5042278;28;20021;-40
2023/09/29 01:24:15;;;;;;;87.63;23.15;;;;;;;;;;5049708;28;20037;-42
2023/09/29 01:26:46;;;;;;;82.05;21.13;;;;;;;;;;5042293;28;20029;-41
2023/09/29 01:29:15;;;;;;;70.63;20.63;;;;;;;;;;5048688;28;20032;-40
2023/09/29 01:31:44;;;;;;;72.93;20.77;;;;;;;;;;5049602;28;20399;-40
2023/09/29 01:34:12;;;;;;;62.50;17.33;;;;;;;;;;5049733;28;20108;-41
2023/09/29 01:36:39;;;;;;;67.25;18.08;;;;;;;;;;5048038;28;20491;-42
2023/09/29 01:39:07;;;;;;;56.95;16.75;;;;;;;;;;5047181;28;20144;-41
2023/09/29 01:41:34;;;;;;;61.47;17.63;;;;;;;;;;5053203;28;20071;-40
2023/09/29 01:44:02;;;;;;;56.70;15.85;;;;;;;;;;5050556;28;20029;-42
2023/09/29 01:46:30;;;;;;;50.50;14.15;;;;;;;;;;5052454;28;20383;-40
2023/09/29 01:48:57;;;;;;;48.90;14.77;;;;;;;;;;5043517;28;20041;-41
2023/09/29 01:51:28;;;;;;;50.83;13.68;;;;;;;;;;5039882;28;20414;-40
2023/09/29 01:53:56;;;;;;;55.28;14.23;;;;;;;;;;5043815;28;20033;-40
2023/09/29 01:56:23;;;;;;;40.20;12.98;;;;;;;;;;5044507;28;20114;-41
2023/09/29 01:58:50;;;;;;;39.65;12.20;;;;;;;;;;5049682;28;20120;-41
2023/09/29 02:01:18;;;;;;;39.45;11.93;;;;;;;;;;5037859;28;20037;-40
2023/09/29 02:03:48;;;;;;;49.38;14.07;;;;;;;;;;5041038;28;20116;-41
2023/09/29 02:06:15;;;;;;;39.83;12.52;;;;;;;;;;5043409;28;20115;-40
2023/09/29 02:08:43;;;;;;;55.13;13.50;;;;;;;;;;5052195;28;20033;-41
2023/09/29 02:11:10;;;;;;;42.90;11.73;;;;;;;;;;5053421;28;20033;-41
2023/09/29 02:13:42;;;;;;;44.35;12.18;;;;;;;;;;5053240;28;20068;-41
2023/09/29 02:16:15;;;;;;;38.53;12.23;;;;;;;;;;5053668;28;20044;-45
2023/09/29 02:18:46;;;;;;;41.28;12.60;;;;;;;;;;5041579;28;20041;-43
2023/09/29 02:21:23;;;;;;;47.13;13.02;;;;;;;;;;5052838;28;20508;-42
2023/09/29 02:23:50;;;;;;;38.42;10.90;;;;;;;;;;5041195;28;20044;-42
2023/09/29 02:26:17;;;;;;;34.47;11.48;;;;;;;;;;5042076;28;20021;-40
2023/09/29 02:28:44;;;;;;;37.67;12.00;;;;;;;;;;5042784;28;20035;-40
2023/09/29 02:31:14;;;;;;;32.00;11.38;;;;;;;;;;5034809;28;20036;-40
2023/09/29 02:33:42;;;;;;;36.97;11.77;;;;;;;;;;5053396;28;20037;-40
2023/09/29 02:36:09;;;;;;;45.13;11.52;;;;;;;;;;5052933;28;20021;-41
2023/09/29 02:38:39;;;;;;;43.00;12.00;;;;;;;;;;5052488;28;20730;-40
2023/09/29 02:41:08;;;;;;;34.08;11.20;;;;;;;;;;5052634;28;20049;-43
2023/09/29 02:43:36;;;;;;;38.33;11.63;;;;;;;;;;5052816;28;20060;-42
2023/09/29 02:46:03;;;;;;;41.33;11.50;;;;;;;;;;5052418;28;20021;-42
2023/09/29 02:48:30;;;;;;;35.10;11.10;;;;;;;;;;5052503;28;20035;-42
2023/09/29 02:50:59;;;;;;;32.58;11.15;;;;;;;;;;5050823;28;20044;-42
2023/09/29 02:53:26;;;;;;;29.58;9.93;;;;;;;;;;5052461;28;20486;-40
2023/09/29 02:55:53;;;;;;;33.00;10.60;;;;;;;;;;5052803;28;20060;-41
2023/09/29 02:58:20;;;;;;;34.13;10.57;;;;;;;;;;5052719;28;20040;-41
2023/09/29 03:00:47;;;;;;;26.98;10.30;;;;;;;;;;5052682;28;20491;-40
2023/09/29 03:03:14;;;;;;;33.08;9.63;;;;;;;;;;5052712;28;20029;-40
2023/09/29 03:05:43;;;;;;;28.48;10.43;;;;;;;;;;5052677;28;20494;-41
2023/09/29 03:08:10;;;;;;;28.60;9.93;;;;;;;;;;5052658;28;20475;-41
2023/09/29 03:10:37;;;;;;;33.88;10.57;;;;;;;;;;5050278;28;20021;-41
2023/09/29 03:13:04;;;;;;;27.48;9.75;;;;;;;;;;5052152;28;20078;-41
2023/09/29 03:15:31;;;;;;;30.83;9.80;;;;;;;;;;5050100;28;20033;-41
2023/09/29 03:17:58;;;;;;;32.75;9.55;;;;;;;;;;5053115;28;20048;-41
2023/09/29 03:20:25;;;;;;;31.08;9.95;;;;;;;;;;5053135;28;20028;-41
2023/09/29 03:22:52;;;;;;;28.73;9.35;;;;;;;;;;5052782;28;20037;-41
2023/09/29 03:25:20;;;;;;;25.35;8.85;;;;;;;;;;5052882;28;20033;-40
2023/09/29 03:27:48;;;;;;;24.65;8.32;;;;;;;;;;5052755;28;20048;-41
2023/09/29 03:30:15;;;;;;;31.27;9.02;;;;;;;;;;5052849;28;20442;-41
2023/09/29 03:32:43;;;;;;;26.70;8.80;;;;;;;;;;5052538;28;20036;-41
2023/09/29 03:35:10;;;;;;;22.05;8.90;;;;;;;;;;5052552;28;20064;-41
2023/09/29 03:37:39;;;;;;;21.30;7.88;;;;;;;;;;5052780;28;20033;-43
2023/09/29 03:40:08;;;;;;;24.33;8.85;;;;;;;;;;5052640;28;20032;-41
2023/09/29 03:42:36;;;;;;;28.35;8.85;;;;;;;;;;5052484;28;20100;-41
2023/09/29 03:45:05;;;;;;;24.02;8.30;;;;;;;;;;5052748;28;20056;-40
2023/09/29 03:47:34;;;;;;;31.70;9.73;;;;;;;;;;5052052;28;20577;-41
2023/09/29 03:50:01;;;;;;;22.52;7.65;;;;;;;;;;5052441;28;20017;-41
2023/09/29 03:52:32;;;;;;;24.48;8.38;;;;;;;;;;5051645;28;20137;-40
2023/09/29 03:54:59;;;;;;;27.17;9.20;;;;;;;;;;5052512;28;20495;-40
2023/09/29 03:57:26;;;;;;;21.88;8.02;;;;;;;;;;5052415;28;20027;-40
2023/09/29 03:59:53;;;;;;;23.48;8.13;;;;;;;;;;5052464;28;20561;-40
2023/09/29 04:02:20;;;;;;;23.77;8.07;;;;;;;;;;5051785;28;20669;-40
2023/09/29 04:04:47;;;;;;;26.10;8.15;;;;;;;;;;5052192;28;20479;-39
2023/09/29 04:07:15;;;;;;;23.33;7.43;;;;;;;;;;5052360;28;20387;-40
2023/09/29 04:09:42;;;;;;;25.88;7.75;;;;;;;;;;5052114;28;20051;-40
2023/09/29 04:12:09;;;;;;;19.50;7.60;;;;;;;;;;5052089;28;20542;-40
2023/09/29 04:14:36;;;;;;;26.90;7.45;;;;;;;;;;5052160;28;20112;-41
2023/09/29 04:17:04;;;;;;;24.88;7.45;;;;;;;;;;5051966;28;20048;-40
2023/09/29 04:19:32;;;;;;;23.00;7.30;;;;;;;;;;5051996;28;20124;-40
2023/09/29 04:21:59;;;;;;;16.38;6.97;;;;;;;;;;5051868;28;20075;-40
2023/09/29 04:24:27;;;;;;;20.50;7.13;;;;;;;;;;5052176;28;20497;-40
2023/09/29 04:26:54;;;;;;;23.17;7.28;;;;;;;;;;5051974;28;20025;-40
2023/09/29 04:29:21;;;;;;;22.88;7.75;;;;;;;;;;5051928;28;20029;-40
2023/09/29 04:31:48;;;;;;;17.30;6.28;;;;;;;;;;5051775;28;20022;-40
2023/09/29 04:34:15;;;;;;;18.50;6.80;;;;;;;;;;5051971;28;20029;-40
2023/09/29 04:36:42;;;;;;;16.90;6.72;;;;;;;;;;5051782;28;20063;-40
2023/09/29 04:39:09;;;;;;;17.42;6.72;;;;;;;;;;5033926;28;20029;-40
2023/09/29 04:41:37;;;;;;;17.58;6.38;;;;;;;;;;5033902;28;20033;-40
2023/09/29 04:44:05;;;;;;;19.35;7.55;;;;;;;;;;5033664;28;20052;-40
2023/09/29 04:46:34;;;;;;;18.60;6.82;;;;;;;;;;5051526;28;20041;-41
2023/09/29 04:49:03;;;;;;;23.48;7.50;;;;;;;;;;5051503;28;20495;-41
2023/09/29 04:51:36;;;;;;;20.92;6.50;;;;;;;;;;5051308;28;20036;-40
2023/09/29 04:54:04;;;;;;;19.50;6.95;;;;;;;;;;5051111;28;20183;-40
2023/09/29 04:56:30;;;;;;;17.10;5.88;;;;;;;;;;5050925;28;20032;-40
2023/09/29 04:58:57;;;;;;;21.13;6.63;;;;;;;;;;5051643;28;20131;-40
2023/09/29 05:01:26;;;;;;;16.85;6.10;;;;;;;;;;5051208;28;20029;-40
2023/09/29 05:03:53;;;;;;;16.70;6.30;;;;;;;;;;5051448;28;20116;-41
2023/09/29 05:06:23;;;;;;;14.90;5.55;;;;;;;;;;5051084;28;20063;-40
2023/09/29 05:08:51;;;;;;;15.73;6.10;;;;;;;;;;5050787;28;20051;-40
2023/09/29 05:11:24;;;;;;;17.92;6.18;;;;;;;;;;5051225;28;20041;-40
2023/09/29 05:13:51;;;;;;;17.42;6.00;;;;;;;;;;5052845;28;20121;-40
2023/09/29 05:16:18;;;;;;;15.20;5.30;;;;;;;;;;5055064;28;20045;-41
2023/09/29 05:18:46;;;;;;;18.77;6.00;;;;;;;;;;5055556;28;20033;-41
2023/09/29 05:21:13;;;;;;;17.77;5.70;;;;;;;;;;5054804;28;20027;-40
2023/09/29 05:23:40;;;;;;;17.08;5.90;;;;;;;;;;5055161;28;20057;-41
2023/09/29 05:26:07;;;;;;;12.27;5.40;;;;;;;;;;5054938;28;20032;-41
2023/09/29 05:28:35;;;;;;;14.00;5.57;;;;;;;;;;5055294;28;20033;-41
2023/09/29 05:31:05;;;;;;;12.25;5.25;;;;;;;;;;5054239;28;20386;-41
2023/09/29 05:33:33;;;;;;;14.38;4.80;;;;;;;;;;5055019;28;20029;-40
2023/09/29 05:36:00;;;;;;;15.98;5.22;;;;;;;;;;5055101;28;20068;-43
2023/09/29 05:38:28;;;;;;;14.70;5.10;;;;;;;;;;5054668;28;20052;-40
2023/09/29 05:40:55;;;;;;;14.60;5.05;;;;;;;;;;5054578;28;20037;-41
2023/09/29 05:43:21;;;;;;;12.90;4.35;;;;;;;;;;5054035;28;20185;-42
2023/09/29 05:45:49;;;;;;;13.15;4.95;;;;;;;;;;5054801;28;20086;-41
2023/09/29 05:48:16;;;;;;;10.73;4.72;;;;;;;;;;5053966;28;20033;-41
2023/09/29 05:50:43;;;;;;;12.48;4.82;;;;;;;;;;5054764;28;20125;-41
2023/09/29 05:53:11;;;;;;;12.18;4.20;;;;;;;;;;5054269;28;20496;-41
2023/09/29 05:55:41;;;;;;;10.43;4.05;;;;;;;;;;5054653;28;20585;-40
2023/09/29 05:58:08;;;;;;;8.15;3.55;;;;;;;;;;5054447;28;20116;-41
2023/09/29 06:00:36;;;;;;;10.70;3.88;;;;;;;;;;5054432;28;20499;-41
2023/09/29 06:03:03;;;;;;;9.90;3.72;;;;;;;;;;5048988;28;20037;-41
2023/09/29 06:05:31;;;;;;;11.63;3.97;;;;;;;;;;5054394;28;20104;-40
2023/09/29 06:07:58;;;;;;;10.18;3.60;;;;;;;;;;5054126;28;20056;-41
2023/09/29 06:10:25;;;;;;;11.40;3.75;;;;;;;;;;5054062;28;20029;-41
2023/09/29 06:12:52;;;;;;;11.75;4.13;;;;;;;;;;5062086;28;20056;-41
2023/09/29 06:15:19;;;;;;;14.75;4.15;;;;;;;;;;5054231;28;20025;-40
2023/09/29 06:17:46;;;;;;;8.73;3.92;;;;;;;;;;5054273;28;20183;-40
2023/09/29 06:20:13;;;;;;;10.25;3.90;;;;;;;;;;5054393;28;20037;-40
2023/09/29 06:22:40;;;;;;;9.35;3.42;;;;;;;;;;5054213;28;20108;-40
2023/09/29 06:25:07;;;;;;;9.05;3.67;;;;;;;;;;5053464;28;20391;-41
2023/09/29 06:27:34;;;;;;;9.38;3.85;;;;;;;;;;5053947;28;20037;-41
2023/09/29 06:30:01;;;;;;;7.95;3.45;;;;;;;;;;5054271;28;20483;-40
2023/09/29 06:32:28;;;;;;;12.00;3.88;;;;;;;;;;5053287;28;20041;-41
2023/09/29 06:34:55;;;;;;;11.68;3.97;;;;;;;;;;5053999;28;20029;-41
2023/09/29 06:37:22;;;;;;;10.75;3.50;;;;;;;;;;5053879;28;20025;-43
2023/09/29 06:39:49;;;;;;;9.60;3.45;;;;;;;;;;5054111;28;20112;-41
2023/09/29 06:42:16;;;;;;;7.78;3.20;;;;;;;;;;5052840;28;20021;-40
2023/09/29 06:44:43;;;;;;;8.65;3.40;;;;;;;;;;5053953;28;20032;-40
2023/09/29 06:47:10;;;;;;;6.97;3.58;;;;;;;;;;5053486;28;20867;-41
2023/09/29 06:49:37;;;;;;;10.55;3.50;;;;;;;;;;5053773;28;20540;-40
2023/09/29 06:52:04;;;;;;;10.52;3.63;;;;;;;;;;5053586;28;20475;-40
2023/09/29 06:54:31;;;;;;;8.13;2.83;;;;;;;;;;5053408;28;20028;-40
2023/09/29 06:56:58;;;;;;;8.85;3.28;;;;;;;;;;5053496;28;20031;-41
2023/09/29 06:59:25;;;;;;;7.97;2.97;;;;;;;;;;5053201;28;20044;-41
2023/09/29 07:01:54;;;;;;;8.52;3.10;;;;;;;;;;5053451;28;20032;-41
2023/09/29 07:04:21;;;;;;;8.60;3.38;;;;;;;;;;5053418;28;20049;-40
2023/09/29 07:06:48;;;;;;;6.63;2.78;;;;;;;;;;5052955;28;20073;-41
2023/09/29 07:09:16;;;;;;;7.32;3.15;;;;;;;;;;5053078;28;20087;-41
2023/09/29 07:11:44;;;;;;;9.02;3.30;;;;;;;;;;5053099;28;20031;-41
2023/09/29 07:14:11;;;;;;;7.35;2.80;;;;;;;;;;5052814;28;20037;-40
2023/09/29 07:16:39;;;;;;;7.03;2.63;;;;;;;;;;5052462;28;20114;-41
2023/09/29 07:19:06;;;;;;;7.03;3.10;;;;;;;;;;5052944;28;20033;-40
2023/09/29 07:21:33;;;;;;;6.75;3.10;;;;;;;;;;5052959;28;20025;-40
2023/09/29 07:24:00;;;;;;;7.90;2.83;;;;;;;;;;5052984;28;20028;-41
2023/09/29 07:26:27;;;;;;;9.23;2.40;;;;;;;;;;5052746;28;20581;-41
2023/09/29 07:28:56;;;;;;;5.82;2.85;;;;;;;;;;5053081;28;20091;-41
2023/09/29 07:31:23;;;;;;;6.53;2.22;;;;;;;;;;5052480;28;20040;-40
2023/09/29 07:33:50;;;;;;;6.97;2.72;;;;;;;;;;5052850;28;20033;-41
2023/09/29 07:36:17;;;;;;;5.10;2.38;;;;;;;;;;5051623;28;20130;-41
2023/09/29 07:38:44;;;;;;;4.95;2.67;;;;;;;;;;5052449;28;20025;-40
2023/09/29 07:41:12;;;;;;;5.65;2.40;;;;;;;;;;5052257;28;20047;-39
2023/09/29 07:43:41;;;;;;;6.90;2.97;;;;;;;;;;5052577;28;20111;-40
2023/09/29 07:46:08;;;;;;;7.68;2.70;;;;;;;;;;5052181;28;20028;-40
2023/09/29 07:48:35;;;;;;;5.20;2.38;;;;;;;;;;5052479;28;20075;-40
2023/09/29 07:51:02;;;;;;;5.53;2.10;;;;;;;;;;5052484;28;20032;-39
2023/09/29 07:53:29;;;;;;;6.70;1.98;;;;;;;;;;5052225;28;20047;-39
2023/09/29 07:55:56;;;;;;;6.57;2.20;;;;;;;;;;5052463;28;20033;-39
2023/09/29 07:58:23;;;;;;;6.53;2.25;;;;;;;;;;5052261;28;20067;-41
2023/09/29 08:00:50;;;;;;;6.35;2.42;;;;;;;;;;5052102;28;20044;-39
2023/09/29 08:03:17;;;;;;;7.13;2.35;;;;;;;;;;5052268;28;20029;-40
2023/09/29 08:05:44;;;;;;;6.72;2.20;;;;;;;;;;5052138;28;20029;-41
2023/09/29 08:08:11;;;;;;;4.65;2.25;;;;;;;;;;5052063;28;20029;-39
2023/09/29 08:10:38;;;;;;;6.82;2.35;;;;;;;;;;5051835;28;20032;-39
2023/09/29 08:13:05;;;;;;;5.00;2.10;;;;;;;;;;5051966;28;20040;-41
2023/09/29 08:15:32;;;;;;;7.20;2.45;;;;;;;;;;5052197;28;20384;-40
2023/09/29 08:18:00;;;;;;;7.18;2.47;;;;;;;;;;5051853;28;20055;-39
2023/09/29 08:20:27;;;;;;;4.68;1.77;;;;;;;;;;5051901;28;20048;-41
2023/09/29 08:22:54;;;;;;;5.22;2.00;;;;;;;;;;5051715;28;20025;-40
2023/09/29 08:25:21;;;;;;;4.65;1.90;;;;;;;;;;5051889;28;20057;-40
2023/09/29 08:27:48;;;;;;;5.22;1.83;;;;;;;;;;5051566;28;20048;-40
2023/09/29 08:30:15;;;;;;;5.50;2.10;;;;;;;;;;5051658;28;20041;-40
2023/09/29 08:32:42;;;;;;;4.45;1.75;;;;;;;;;;5051578;28;20041;-41
2023/09/29 08:35:13;;;;;;;4.88;1.77;;;;;;;;;;5051818;28;20037;-41
2023/09/29 08:37:43;;;;;;;4.43;1.88;;;;;;;;;;5051586;28;20041;-40
2023/09/29 08:40:13;;;;;;;7.07;2.28;;;;;;;;;;5051690;28;20021;-41
2023/09/29 08:42:41;;;;;;;4.40;1.70;;;;;;;;;;5051569;28;20031;-42
2023/09/29 08:45:09;;;;;;;5.55;1.60;;;;;;;;;;5051259;28;20056;-41
2023/09/29 08:47:40;;;;;;;5.20;2.10;;;;;;;;;;5051161;28;20110;-41
2023/09/29 08:50:14;;;;;;;3.55;1.65;;;;;;;;;;5051372;28;20042;-40
2023/09/29 08:52:45;;;;;;;4.30;1.88;;;;;;;;;;5051341;28;20076;-40
2023/09/29 08:55:12;;;;;;;4.75;1.83;;;;;;;;;;5051599;28;20104;-40
2023/09/29 08:57:45;;;;;;;4.47;1.92;;;;;;;;;;5050759;28;20605;-40
2023/09/29 09:00:16;;;;;;;4.45;1.63;;;;;;;;;;5051608;28;20039;-40
2023/09/29 09:02:44;;;;;;;6.18;1.85;;;;;;;;;;5051291;28;20044;-41
2023/09/29 09:05:12;;;;;;;4.18;1.80;;;;;;;;;;5051148;28;20479;-40
2023/09/29 09:07:43;;;;;;;3.45;1.73;;;;;;;;;;5050644;28;20029;-40
2023/09/29 09:10:11;;;;;;;3.57;1.57;;;;;;;;;;5050963;28;20044;-40
2023/09/29 09:12:40;;;;;;;3.30;1.65;;;;;;;;;;5050421;28;20362;-40
2023/09/29 09:15:08;;;;;;;6.07;2.08;;;;;;;;;;5050773;28;20095;-40
2023/09/29 09:17:36;;;;;;;3.15;1.55;;;;;;;;;;5050138;28;20080;-41
2023/09/29 09:20:04;;;;;;;5.22;1.92;;;;;;;;;;5048154;28;20029;-40
2023/09/29 09:22:32;;;;;;;4.75;1.50;;;;;;;;;;5050909;28;20084;-42
2023/09/29 09:24:59;;;;;;;5.18;1.50;;;;;;;;;;5050998;28;20036;-40
2023/09/29 09:27:27;;;;;;;2.33;1.05;;;;;;;;;;5050503;28;20036;-41
2023/09/29 09:29:54;;;;;;;3.15;1.38;;;;;;;;;;5050860;28;20067;-40
2023/09/29 09:32:27;;;;;;;3.92;1.40;;;;;;;;;;5050824;28;20094;-41
2023/09/29 09:34:54;;;;;;;4.63;1.40;;;;;;;;;;5051144;28;20044;-42
2023/09/29 09:37:39;;;;;;;4.70;1.65;;;;;;;;;;5050435;28;20124;-42
2023/09/29 09:40:07;;;;;;;4.78;1.45;;;;;;;;;;5050870;28;20509;-41
2023/09/29 09:42:35;;;;;;;7.60;1.70;;;;;;;;;;5050069;28;20095;-42
2023/09/29 09:45:02;;;;;;;6.63;1.42;;;;;;;;;;5049633;28;20047;-40
2023/09/29 09:47:29;;;;;;;3.38;1.40;;;;;;;;;;5050307;28;20627;-41
2023/09/29 09:49:57;;;;;;;4.00;1.20;;;;;;;;;;5050588;28;20039;-40
2023/09/29 09:52:29;;;;;;;3.53;1.30;;;;;;;;;;5050899;28;20061;-41
2023/09/29 09:55:04;;;;;;;5.90;1.58;;;;;;;;;;5050798;28;20033;-40
2023/09/29 09:57:45;;;;;;;3.33;1.30;;;;;;;;;;5049049;28;20021;-41
2023/09/29 10:00:15;;;;;;;7.30;1.25;;;;;;;;;;5052130;28;20039;-40
2023/09/29 10:02:47;;;;;;;4.25;1.23;;;;;;;;;;5054625;28;20406;-41
2023/09/29 10:05:31;;;;;;;3.88;1.20;;;;;;;;;;5054294;28;20033;-42
2023/09/29 10:08:02;;;;;;;10.52;1.65;;;;;;;;;;5054237;28;20577;-40
2023/09/29 10:10:33;;;;;;;8.95;1.85;;;;;;;;;;5053255;28;20777;-40
2023/09/29 10:13:01;;;;;;;3.88;1.15;;;;;;;;;;5054066;28;20048;-40
2023/09/29 10:15:32;;;;;;;4.35;1.45;;;;;;;;;;5053781;28;20403;-41
2023/09/29 10:18:00;;;;;;;5.93;1.30;;;;;;;;;;5053942;28;20095;-41
2023/09/29 10:20:29;;;;;;;6.75;1.50;;;;;;;;;;5053891;28;20577;-40
2023/09/29 10:23:09;;;;;;;6.22;1.55;;;;;;;;;;5053532;28;20028;-40
2023/09/29 10:25:37;;;;;;;3.53;1.02;;;;;;;;;;5052947;28;20060;-40
2023/09/29 10:28:08;;;;;;;4.15;1.10;;;;;;;;;;5053075;28;20029;-40
2023/09/29 10:30:38;;;;;;;5.85;0.98;;;;;;;;;;5053714;28;20096;-41
2023/09/29 10:33:13;;;;;;;11.13;1.40;;;;;;;;;;5053433;28;20448;-42
2023/09/29 10:35:46;;;;;;;8.88;1.50;;;;;;;;;;5053472;28;20416;-41
2023/09/29 10:38:30;;;;;;;17.85;1.60;;;;;;;;;;5051408;28;20024;-41
2023/09/29 10:41:00;;;;;;;14.95;1.67;;;;;;;;;;5052294;28;20057;-42
2023/09/29 10:43:27;;;;;;;9.63;1.40;;;;;;;;;;5052937;28;20074;-41
2023/09/29 10:45:56;;;;;;;25.30;2.08;;;;;;;;;;5052763;28;20037;-41
2023/09/29 10:48:26;;;;;;;15.98;1.88;;;;;;;;;;5052386;28;20929;-41
2023/09/29 10:50:54;;;;;;;17.75;2.10;;;;;;;;;;5053168;28;20033;-41
2023/09/29 10:53:24;;;;;;;12.48;2.03;;;;;;;;;;5052508;28;20487;-40
2023/09/29 10:55:56;;;;;;;8.48;1.42;;;;;;;;;;5052684;28;20056;-41
2023/09/29 10:58:27;;;;;;;18.58;1.73;;;;;;;;;;5052755;28;20033;-41
2023/09/29 11:00:54;;;;;;;12.10;1.90;;;;;;;;;;5052867;28;20047;-40
2023/09/29 11:03:27;;;;;;;24.02;1.95;;;;;;;;;;5052868;28;20068;-41
2023/09/29 11:05:55;;;;;;;11.55;1.48;;;;;;;;;;5053252;28;20028;-41
2023/09/29 11:08:33;;;;;;;17.40;1.80;;;;;;;;;;5052964;28;20028;-40
2023/09/29 11:11:02;;;;;;;15.48;1.50;;;;;;;;;;5050679;28;20033;-40
2023/09/29 11:13:30;;;;;;;18.55;2.05;;;;;;;;;;5052547;28;20048;-41
2023/09/29 11:15:58;;;;;;;13.02;1.35;;;;;;;;;;5046796;28;20118;-40
2023/09/29 11:18:26;;;;;;;14.73;1.90;;;;;;;;;;5052891;28;20087;-41
2023/09/29 11:20:53;;;;;;;17.52;2.15;;;;;;;;;;5052854;28;20036;-40
2023/09/29 11:23:21;;;;;;;18.73;2.03;;;;;;;;;;5053441;28;20036;-41
2023/09/29 11:25:48;;;;;;;16.63;1.92;;;;;;;;;;5053130;28;20025;-40
2023/09/29 11:28:19;;;;;;;351.45;22.60;;;;;;;;;;5049293;28;20035;-47
2023/09/29 11:30:46;;;;;;;43.00;2.80;;;;;;;;;;5047354;28;20029;-41
2023/09/29 11:33:15;;;;;;;31.23;2.70;;;;;;;;;;5049512;28;20059;-43
2023/09/29 11:35:45;;;;;;;54.22;3.35;;;;;;;;;;5048463;28;20495;-41
2023/09/29 11:38:22;;;;;;;225.98;15.95;;;;;;;;;;5049996;28;20044;-41
2023/09/29 11:40:52;;;;;;;139.70;10.57;;;;;;;;;;5049077;28;20045;-43
2023/09/29 11:43:19;;;;;;;115.53;9.30;;;;;;;;;;5049619;28;20494;-41
2023/09/29 11:45:46;;;;;;;108.63;9.32;;;;;;;;;;5048236;28;20027;-41
2023/09/29 11:48:13;;;;;;;80.00;7.60;;;;;;;;;;5049946;28;20045;-43
2023/09/29 11:50:40;;;;;;;75.43;6.72;;;;;;;;;;5050332;28;20060;-42
2023/09/29 11:53:08;;;;;;;85.97;8.05;;;;;;;;;;5049846;28;20063;-37
2023/09/29 11:55:36;;;;;;;74.22;5.57;;;;;;;;;;5048909;28;20037;-41
2023/09/29 11:58:04;;;;;;;50.53;4.32;;;;;;;;;;5050251;28;20394;-41
2023/09/29 12:00:31;;;;;;;54.03;4.85;;;;;;;;;;5049897;28;20148;-42
2023/09/29 12:02:58;;;;;;;56.20;5.57;;;;;;;;;;5051500;28;20033;-42
2023/09/29 12:05:25;;;;;;;37.83;3.13;;;;;;;;;;5033905;28;20037;-41
2023/09/29 12:07:53;;;;;;;32.28;2.45;;;;;;;;;;5035863;28;20060;-39
2023/09/29 12:10:20;;;;;;;36.47;3.05;;;;;;;;;;5051371;28;20083;-41
2023/09/29 12:12:47;;;;;;;29.98;3.33;;;;;;;;;;5051452;28;20446;-38
2023/09/29 12:15:17;;;;;;;36.67;3.90;;;;;;;;;;5051607;28;20103;-40
2023/09/29 12:17:45;;;;;;;44.70;4.22;;;;;;;;;;5050959;28;20040;-39
2023/09/29 12:20:15;;;;;;;45.78;4.50;;;;;;;;;;5050883;28;20049;-42
2023/09/29 12:22:46;;;;;;;36.65;4.85;;;;;;;;;;5051198;28;20064;-42
2023/09/29 12:25:14;;;;;;;55.72;5.63;;;;;;;;;;5051539;28;20029;-41
2023/09/29 12:27:45;;;;;;;36.92;4.15;;;;;;;;;;5051573;28;20060;-39
2023/09/29 12:30:12;;;;;;;44.97;4.43;;;;;;;;;;5051060;28;20021;-39
2023/09/29 12:32:40;;;;;;;31.13;4.35;;;;;;;;;;5051266;28;20380;-41
2023/09/29 12:35:08;;;;;;;42.92;4.60;;;;;;;;;;5051609;28;20032;-41
2023/09/29 12:37:37;;;;;;;35.08;4.60;;;;;;;;;;5050531;28;20402;-42
2023/09/29 12:40:05;;;;;;;44.92;4.53;;;;;;;;;;5050889;28;20479;-39
2023/09/29 12:42:32;;;;;;;39.30;4.00;;;;;;;;;;5051606;28;20748;-39
2023/09/29 12:44:59;;;;;;;27.92;4.20;;;;;;;;;;5051010;28;20036;-41
2023/09/29 12:47:26;;;;;;;24.00;3.17;;;;;;;;;;5050954;28;20513;-39
2023/09/29 12:49:54;;;;;;;31.90;3.75;;;;;;;;;;5051123;28;20483;-39
2023/09/29 12:52:21;;;;;;;22.33;3.38;;;;;;;;;;5051081;28;20447;-39
2023/09/29 12:54:50;;;;;;;26.88;3.17;;;;;;;;;;5051258;28;20402;-39
2023/09/29 12:57:20;;;;;;;24.92;3.15;;;;;;;;;;5051617;28;20041;-39
2023/09/29 12:59:47;;;;;;;21.98;3.50;;;;;;;;;;5033028;28;20056;-39
2023/09/29 13:02:15;;;;;;;32.75;3.60;;;;;;;;;;5051275;28;20166;-39
2023/09/29 13:04:42;;;;;;;24.67;3.55;;;;;;;;;;5051220;28;20524;-40
2023/09/29 13:07:09;;;;;;;30.90;4.18;;;;;;;;;;5051248;28;20399;-40
2023/09/29 13:09:37;;;;;;;29.92;4.57;;;;;;;;;;5033754;28;20021;-39
2023/09/29 13:12:05;;;;;;;29.88;3.53;;;;;;;;;;5051021;28;20037;-42
2023/09/29 13:14:32;;;;;;;20.13;3.75;;;;;;;;;;5031523;28;20040;-42
2023/09/29 13:16:59;;;;;;;29.17;3.10;;;;;;;;;;5051108;28;20032;-42
2023/09/29 13:19:26;;;;;;;22.40;3.17;;;;;;;;;;5050999;28;20167;-42
2023/09/29 13:21:54;;;;;;;19.52;2.95;;;;;;;;;;5051091;28;20116;-42
2023/09/29 13:24:21;;;;;;;18.40;3.00;;;;;;;;;;5051032;28;20721;-42
2023/09/29 13:26:48;;;;;;;24.52;2.60;;;;;;;;;;5050653;28;20040;-42
2023/09/29 13:29:17;;;;;;;20.15;3.05;;;;;;;;;;5051057;28;20047;-43
2023/09/29 13:31:44;;;;;;;26.52;2.72;;;;;;;;;;5032926;28;20123;-44
2023/09/29 13:34:11;;;;;;;14.93;2.65;;;;;;;;;;5051376;28;20032;-42
2023/09/29 13:36:39;;;;;;;14.73;2.50;;;;;;;;;;5054984;28;20079;-42
2023/09/29 13:39:07;;;;;;;16.80;1.88;;;;;;;;;;5054995;28;20146;-42
2023/09/29 13:41:34;;;;;;;16.70;2.75;;;;;;;;;;5053935;28;20394;-42
2023/09/29 13:44:01;;;;;;;27.92;2.78;;;;;;;;;;5054626;28;20047;-43
2023/09/29 13:46:29;;;;;;;21.77;2.72;;;;;;;;;;5036945;28;20025;-42
2023/09/29 13:48:57;;;;;;;14.35;1.90;;;;;;;;;;5036804;28;20437;-40
2023/09/29 13:51:24;;;;;;;13.80;2.15;;;;;;;;;;5054519;28;20033;-42
2023/09/29 13:53:51;;;;;;;11.93;2.20;;;;;;;;;;5054332;28;20114;-41
2023/09/29 13:56:19;;;;;;;18.90;2.20;;;;;;;;;;5054378;28;20114;-42
2023/09/29 13:58:46;;;;;;;18.55;1.88;;;;;;;;;;5054596;28;20021;-41
2023/09/29 14:01:13;;;;;;;18.52;2.33;;;;;;;;;;5054408;28;20035;-43
2023/09/29 14:03:41;;;;;;;14.93;2.22;;;;;;;;;;5053591;28;20095;-40
2023/09/29 14:06:13;;;;;;;18.77;2.50;;;;;;;;;;5054279;28;20037;-40
2023/09/29 14:08:41;;;;;;;16.52;2.00;;;;;;;;;;5052511;28;20072;-39
2023/09/29 14:11:08;;;;;;;26.65;2.33;;;;;;;;;;5069108;28;20054;-42
2023/09/29 14:13:36;;;;;;;22.60;2.30;;;;;;;;;;5059236;28;20099;-41
2023/09/29 14:16:03;;;;;;;16.30;1.98;;;;;;;;;;5054041;28;20047;-40
2023/09/29 14:18:30;;;;;;;22.08;1.85;;;;;;;;;;5034348;28;20033;-39
2023/09/29 14:20:57;;;;;;;24.95;2.33;;;;;;;;;;5052959;28;20079;-39
2023/09/29 14:23:24;;;;;;;22.90;2.20;;;;;;;;;;5053066;28;20822;-42
2023/09/29 14:25:51;;;;;;;21.02;2.33;;;;;;;;;;5052770;28;20428;-39
2023/09/29 14:28:18;;;;;;;23.85;2.10;;;;;;;;;;5052762;28;20048;-42
2023/09/29 14:30:46;;;;;;;15.93;1.85;;;;;;;;;;5052712;28;20426;-40
2023/09/29 14:33:13;;;;;;;15.48;2.00;;;;;;;;;;5052287;28;20058;-39
2023/09/29 14:35:40;;;;;;;17.30;2.33;;;;;;;;;;5051822;28;20025;-39
2023/09/29 14:38:07;;;;;;;18.40;2.03;;;;;;;;;;5038448;28;20776;-44